Time;durP1;ratioP1;P1;durP2;ratioP2;P2;SDS_P1;SDS_P2;PMS_P1;PMS_P2;Temp;Humidity;BMP_temperature;BMP_pressure;BME280_temperature;BME280_humidity;BME280_pressure;Samples;Min_cycle;Max_cycle;Signal;HPM_P1;HPM_P2
2023/01/26 00:01:54;;;;;;;;;;;4.40;75.00;;;3.14;58.77;101470.66;6152934;23;19920;-80
2023/01/26 00:04:21;;;;;;;;;;;4.40;75.00;;;3.12;58.63;101469.94;6152752;23;19956;-80
2023/01/26 00:06:48;;;;;;;;;;;4.30;75.00;;;3.10;58.58;101478.81;6152236;23;20327;-80
2023/01/26 00:09:15;;;;;;;;;;;4.30;75.00;;;3.11;58.86;101477.03;6151076;23;20331;-80
2023/01/26 00:11:43;;;;;;;;;;;4.30;75.10;;;3.12;58.63;101464.69;6153392;23;19921;-81
2023/01/26 00:14:10;;;;;;;;;;;4.30;75.00;;;3.08;58.83;101457.06;6153175;23;19927;-80
2023/01/26 00:16:37;;;;;;;;;;;4.30;75.20;;;3.06;58.91;101451.09;6152321;23;20011;-80
2023/01/26 00:19:04;;;;;;;;;;;4.30;75.40;;;3.11;58.91;101442.75;6151851;23;19924;-80
2023/01/26 00:21:31;;;;;;;;;;;4.30;75.40;;;3.09;59.01;101434.16;6152472;23;19920;-81
2023/01/26 00:24:01;;;;;;;;;;;4.30;75.50;;;3.07;59.15;101430.81;6153001;23;19927;-81
2023/01/26 00:26:28;;;;;;;;;;;4.30;75.60;;;3.04;59.53;101431.13;6150806;23;19920;-80
2023/01/26 00:28:56;;;;;;;;;;;4.30;75.80;;;3.05;59.63;101422.25;6152323;23;19924;-80
2023/01/26 00:31:25;;;;;;;;;;;4.30;76.00;;;3.04;59.39;101423.22;6150551;23;19917;-81
2023/01/26 00:33:53;;;;;;;;;;;4.30;76.00;;;2.98;59.73;101418.50;6152594;23;19955;-80
2023/01/26 00:36:21;;;;;;;;;;;4.20;76.20;;;3.04;59.86;101420.59;6151123;23;19927;-80
2023/01/26 00:38:48;;;;;;;;;;;4.20;76.30;;;3.00;59.77;101416.56;6152224;23;20267;-80
2023/01/26 00:43:59;;;;;;;;;;;4.20;76.60;;;2.99;60.04;101402.56;6152111;23;19920;-80
2023/01/26 00:46:26;;;;;;;;;;;4.20;76.60;;;2.92;60.14;101393.53;6150201;23;19916;-80
2023/01/26 00:48:53;;;;;;;;;;;4.20;76.80;;;2.93;60.27;101387.31;6148519;23;19920;-81
2023/01/26 00:51:20;;;;;;;;;;;4.10;76.80;;;2.89;60.65;101396.44;6150663;23;20327;-81
2023/01/26 00:53:47;;;;;;;;;;;4.10;77.10;;;2.88;60.63;101392.16;6151172;23;19927;-80
2023/01/26 00:56:14;;;;;;;;;;;4.10;77.30;;;2.89;61.05;101401.72;6149899;23;20587;-80
2023/01/26 00:58:41;;;;;;;;;;;4.10;77.60;;;2.90;61.10;101387.56;6152176;23;19924;-81
2023/01/26 01:01:13;;;;;;;;;;;4.30;77.60;;;2.94;60.79;101385.50;6152322;23;20327;-81
2023/01/26 01:03:42;;;;;;;;;;;4.30;77.70;;;2.94;61.00;101377.59;6151076;23;19920;-80
2023/01/26 01:06:09;;;;;;;;;;;4.10;77.60;;;2.92;61.05;101390.06;6149953;23;20260;-80
2023/01/26 01:08:36;;;;;;;;;;;4.10;77.60;;;2.93;61.00;101387.31;6150285;23;19920;-80
2023/01/26 01:11:05;;;;;;;;;;;4.10;77.60;;;2.94;60.63;101382.88;6149484;23;20012;-80
2023/01/26 01:13:32;;;;;;;;;;;4.10;77.60;;;2.94;60.86;101374.97;6150515;23;20007;-80
2023/01/26 01:15:59;;;;;;;;;;;4.10;77.70;;;2.91;60.89;101372.59;6150298;23;19939;-80
2023/01/26 01:18:27;;;;;;;;;;;4.10;77.80;;;2.90;61.30;101381.47;6151189;23;20399;-81
2023/01/26 01:20:54;;;;;;;;;;;4.10;78.00;;;2.90;61.08;101379.66;6150515;23;19999;-80
2023/01/26 01:23:21;;;;;;;;;;;4.10;78.00;;;2.89;61.00;101369.28;6151734;23;19960;-80
2023/01/26 01:25:56;;;;;;;;;;;4.00;77.80;;;2.83;61.18;101375.91;6149744;23;19936;-81
2023/01/26 01:28:23;;;;;;;;;;;4.10;78.00;;;2.82;61.38;101367.19;6150101;23;19943;-80
2023/01/26 01:30:50;;;;;;;;;;;4.00;78.00;;;2.85;61.37;101366.09;6150617;23;19959;-81
2023/01/26 01:33:17;;;;;;;;;;;4.10;78.20;;;2.84;61.58;101377.59;6152242;23;19921;-80
2023/01/26 01:35:55;;;;;;;;;;;4.00;78.20;;;2.82;61.91;101384.78;6150575;23;20319;-81
2023/01/26 01:38:22;;;;;;;;;;;4.00;78.40;;;2.81;62.07;101377.84;6150031;23;19943;-81
2023/01/26 01:40:49;;;;;;;;;;;4.00;78.50;;;2.80;61.79;101384.09;6150634;23;19916;-81
2023/01/26 01:43:16;;;;;;;;;;;4.00;78.50;;;2.77;62.26;101393.09;6151017;23;20056;-80
2023/01/26 01:45:44;;;;;;;;;;;4.00;78.80;;;2.82;62.18;101384.78;6149685;23;19956;-81
2023/01/26 01:48:16;;;;;;;;;;;4.00;78.60;;;2.84;62.00;101382.88;6149753;23;19920;-80
2023/01/26 01:50:43;;;;;;;;;;;4.10;78.60;;;2.87;62.05;101371.19;6147573;23;19920;-81
2023/01/26 01:53:14;;;;;;;;;;;4.10;78.70;;;2.91;61.76;101365.53;6150073;23;19927;-80
2023/01/26 01:55:41;;;;;;;;;;;4.20;78.40;;;2.92;62.07;101379.53;6150004;23;19921;-81
2023/01/26 01:58:09;;;;;;;;;;;4.20;78.50;;;2.96;61.87;101368.56;6149304;23;20267;-80
2023/01/26 02:00:36;;;;;;;;;;;4.20;78.50;;;2.98;62.13;101371.91;6149288;23;20580;-81
2023/01/26 02:03:13;;;;;;;;;;;4.20;78.50;;;3.03;61.89;101367.06;6151655;23;19971;-80
2023/01/26 02:05:47;;;;;;;;;;;4.30;78.40;;;3.00;61.55;101362.06;6149850;23;20235;-78
2023/01/26 02:08:18;;;;;;;;;;;4.20;78.40;;;3.04;61.77;101360.81;6148259;23;19920;-78
2023/01/26 02:10:48;;;;;;;;;;;4.20;78.40;;;3.07;61.54;101349.13;6151412;23;19921;-78
2023/01/26 02:13:16;;;;;;;;;;;4.20;78.20;;;3.05;61.83;101344.00;6149672;23;19921;-79
2023/01/26 02:15:43;;;;;;;;;;;4.20;78.30;;;3.08;61.46;101338.47;6149359;23;20362;-78
2023/01/26 02:18:11;;;;;;;;;;;4.20;78.30;;;3.07;61.46;101341.22;6148041;23;19921;-78
2023/01/26 02:20:44;;;;;;;;;;;4.20;78.40;;;3.03;61.63;101343.34;6148495;23;19927;-78
2023/01/26 02:23:25;;;;;;;;;;;4.20;78.40;;;3.05;61.94;101349.28;6149032;23;19924;-78
2023/01/26 02:26:07;;;;;;;;;;;4.40;78.50;;;3.06;61.82;101337.75;6149382;23;20000;-78
2023/01/26 02:28:34;;;;;;;;;;;4.20;78.60;;;3.04;61.89;101349.44;6149262;23;19917;-78
2023/01/26 02:31:03;;;;;;;;;;;4.20;78.60;;;2.95;62.16;101348.47;6149503;23;19920;-78
2023/01/26 02:33:32;;;;;;;;;;;4.10;78.80;;;2.95;62.24;101339.72;6148611;23;20284;-78
2023/01/26 02:36:03;;;;;;;;;;;4.10;78.80;;;2.92;62.29;101343.47;6149339;23;20015;-79
2023/01/26 02:38:36;;;;;;;;;;;4.10;79.10;;;2.96;62.42;101338.75;6149159;23;19923;-78
2023/01/26 02:41:07;;;;;;;;;;;4.10;79.20;;;2.95;62.19;101337.94;6149675;23;19920;-78
2023/01/26 02:43:34;;;;;;;;;;;4.10;79.00;;;2.95;62.22;101332.66;6149036;23;19955;-78
2023/01/26 02:46:01;;;;;;;;;;;4.10;79.20;;;2.94;62.50;101332.81;6149029;23;19928;-78
2023/01/26 02:51:12;;;;;;;;;;;4.10;79.20;;;2.88;62.22;101331.56;6148512;23;20183;-78
2023/01/26 02:53:39;;;;;;;;;;;4.10;79.20;;;2.89;62.40;101332.41;6148713;23;20255;-78
2023/01/26 02:56:07;;;;;;;;;;;4.00;79.20;;;2.85;62.47;101329.19;6148918;23;19920;-78
2023/01/26 02:58:34;;;;;;;;;;;4.00;79.20;;;2.90;62.33;101328.78;6148861;23;19920;-78
2023/01/26 03:01:01;;;;;;;;;;;4.00;79.20;;;2.90;62.33;101319.06;6148960;23;20248;-78
2023/01/26 03:03:40;;;;;;;;;;;4.00;79.00;;;2.92;62.43;101324.19;6149331;23;19924;-78
2023/01/26 03:06:09;;;;;;;;;;;4.00;79.30;;;2.95;62.41;101326.56;6148490;23;19972;-78
2023/01/26 03:08:36;;;;;;;;;;;4.00;79.10;;;2.89;62.26;101320.06;6149198;23;19944;-78
2023/01/26 03:11:04;;;;;;;;;;;4.10;79.20;;;2.90;62.66;101323.50;6149734;23;20347;-78
2023/01/26 03:13:32;;;;;;;;;;;4.00;79.30;;;2.84;62.79;101332.81;6149296;23;19920;-78
2023/01/26 03:16:05;;;;;;;;;;;4.00;79.50;;;2.86;62.57;101328.22;6149629;23;19936;-78
2023/01/26 03:29:41;;;;;;;;;;;4.10;79.40;;;2.85;63.13;101316.03;6148794;23;20002;-78
2023/01/26 03:32:08;;;;;;;;;;;4.10;79.60;;;2.83;62.80;101317.97;6151342;23;20263;-78
2023/01/26 03:34:35;;;;;;;;;;;4.10;79.60;;;2.86;62.90;101320.31;6148595;23;19920;-78
2023/01/26 03:37:03;;;;;;;;;;;4.00;79.70;;;2.87;62.85;101321.16;6148490;23;19925;-78
2023/01/26 03:56:20;;;;;;;;;;;4.00;79.90;;;2.88;63.29;101307.84;6147967;23;19924;-78
2023/01/26 03:58:51;;;;;;;;;;;4.10;80.00;;;2.86;63.35;101301.88;6149630;23;19931;-78
2023/01/26 04:01:24;;;;;;;;;;;4.10;80.20;;;2.83;63.74;101312.69;6149208;23;19920;-78
2023/01/26 04:09:24;;;;;;;;;;;4.00;80.20;;;2.82;63.38;101308.41;6149989;23;20455;-78
2023/01/26 04:11:51;;;;;;;;;;;3.90;80.40;;;2.82;63.72;101303.13;6152179;23;20332;-78
2023/01/26 04:22:39;;;;;;;;;;;4.10;80.30;;;2.89;63.39;101313.97;6150111;23;19917;-78
2023/01/26 04:25:08;;;;;;;;;;;4.10;80.30;;;2.88;63.27;101294.69;6150864;23;19944;-78
2023/01/26 04:27:35;;;;;;;;;;;4.10;80.20;;;2.90;63.59;101297.16;6150214;23;19924;-78
2023/01/26 04:30:04;;;;;;;;;;;4.10;80.20;;;2.90;63.45;101298.00;6151070;23;19956;-78
2023/01/26 04:32:34;;;;;;;;;;;4.10;80.20;;;2.90;63.35;101295.38;6150951;23;19946;-78
2023/01/26 04:35:00;;;;;;;;;;;4.10;80.20;;;2.92;63.59;101296.03;6149833;23;19958;-78
2023/01/26 04:37:29;;;;;;;;;;;4.10;80.30;;;2.88;63.54;101294.69;6150461;23;20260;-78
2023/01/26 04:39:56;;;;;;;;;;;4.10;80.50;;;2.88;63.85;101302.59;6150572;23;20291;-78
2023/01/26 04:42:24;;;;;;;;;;;4.00;80.50;;;2.87;63.82;101293.00;6150405;23;19916;-78
2023/01/26 04:44:51;;;;;;;;;;;4.00;80.60;;;2.86;63.71;101299.25;6149747;23;19987;-78
2023/01/26 04:47:19;;;;;;;;;;;4.00;80.60;;;2.87;63.91;101293.00;6150360;23;19921;-78
2023/01/26 04:49:47;;;;;;;;;;;4.00;80.60;;;2.90;64.06;101286.63;6150372;23;19951;-78
2023/01/26 04:52:18;;;;;;;;;;;4.10;80.70;;;2.89;63.97;101295.50;6150504;23;19923;-78
2023/01/26 04:54:45;;;;;;;;;;;4.00;80.80;;;2.85;64.01;101292.31;6150539;23;19939;-77
2023/01/26 04:57:12;;;;;;;;;;;4.00;80.90;;;2.85;64.14;101289.69;6150032;23;19917;-78
2023/01/26 04:59:43;;;;;;;;;;;4.00;81.00;;;2.85;64.20;101292.31;6149937;23;19921;-78
2023/01/26 05:02:10;;;;;;;;;;;4.00;81.10;;;2.83;64.47;101294.25;6149659;23;20002;-78
2023/01/26 05:04:37;;;;;;;;;;;3.90;81.20;;;2.82;64.41;101297.88;6149847;23;19999;-78
2023/01/26 05:07:05;;;;;;;;;;;4.00;81.20;;;2.83;64.23;101303.00;6150085;23;19924;-78
2023/01/26 05:09:33;;;;;;;;;;;4.00;81.20;;;2.82;64.28;101293.41;6150210;23;19921;-78
2023/01/26 05:12:34;;;;;;;;;;;4.00;81.20;;;2.79;64.41;101300.78;6150707;23;19920;-80
2023/01/26 05:15:22;;;;;;;;;;;4.00;81.20;;;2.83;64.50;101286.34;6150685;23;19920;-77
2023/01/26 05:18:00;;;;;;;;;;;4.00;81.20;;;2.86;64.42;101296.63;6149503;23;20040;-77
2023/01/26 05:20:45;;;;;;;;;;;4.00;81.10;;;2.84;64.61;101293.31;6151282;23;20402;-77
2023/01/26 05:23:26;;;;;;;;;;;4.00;81.20;;;2.86;64.52;101291.34;6151569;23;19932;-76
2023/01/26 05:26:15;;;;;;;;;;;4.00;81.20;;;2.86;64.35;101296.63;6149600;23;20036;-77
2023/01/26 05:28:56;;;;;;;;;;;4.00;81.10;;;2.83;64.60;101303.00;6150280;23;19921;-77
2023/01/26 05:31:23;;;;;;;;;;;4.00;81.40;;;2.84;64.59;101293.31;6150320;23;19927;-77
2023/01/26 05:33:50;;;;;;;;;;;4.00;81.40;;;2.85;64.63;101297.59;6147665;23;20032;-77
2023/01/26 05:36:21;;;;;;;;;;;4.00;81.50;;;2.84;64.69;101301.19;6150236;23;19927;-77
2023/01/26 05:38:50;;;;;;;;;;;3.90;81.50;;;2.84;64.82;101309.94;6151809;23;19920;-76
2023/01/26 05:41:21;;;;;;;;;;;4.00;81.60;;;2.82;64.75;101309.22;6150160;23;19927;-77
2023/01/26 05:44:07;;;;;;;;;;;4.00;81.60;;;2.86;64.69;101306.31;6149990;23;20052;-76
2023/01/26 05:46:38;;;;;;;;;;;4.00;81.60;;;2.88;64.76;101307.84;6148215;23;19952;-77
2023/01/26 05:49:05;;;;;;;;;;;4.00;81.60;;;2.82;64.70;101311.03;6148843;23;20002;-77
2023/01/26 05:51:33;;;;;;;;;;;4.00;81.60;;;2.83;64.82;101310.91;6148581;23;19927;-77
2023/01/26 05:54:01;;;;;;;;;;;4.00;81.70;;;2.81;64.70;101318.09;6149445;23;19951;-77
2023/01/26 05:56:28;;;;;;;;;;;4.00;81.70;;;2.81;65.00;101315.47;6149306;23;19920;-76
2023/01/26 05:59:00;;;;;;;;;;;4.00;81.70;;;2.83;65.15;101317.97;6149560;23;20470;-77
2023/01/26 06:01:28;;;;;;;;;;;4.00;81.70;;;2.86;65.02;101311.59;6149568;23;19948;-77
2023/01/26 06:03:59;;;;;;;;;;;4.10;81.70;;;2.88;64.91;101313.13;6150483;23;19916;-76
2023/01/26 06:06:31;;;;;;;;;;;4.10;81.70;;;2.91;65.17;101314.63;6148700;23;19971;-77
2023/01/26 06:09:10;;;;;;;;;;;4.30;81.70;;;2.87;64.87;101310.63;6145969;23;19975;-76
2023/01/26 06:11:56;;;;;;;;;;;4.10;81.70;;;2.85;64.98;101316.03;6151063;23;19931;-77
2023/01/26 06:14:39;;;;;;;;;;;4.10;81.80;;;2.88;65.06;101314.91;6149688;23;19920;-78
2023/01/26 06:17:06;;;;;;;;;;;4.10;81.70;;;2.92;65.18;101308.38;6148993;23;19920;-78
2023/01/26 06:19:34;;;;;;;;;;;4.10;81.80;;;2.92;64.86;101313.66;6148309;23;19924;-78
2023/01/26 06:22:02;;;;;;;;;;;4.10;81.70;;;2.93;65.18;101313.53;6149445;23;20309;-79
2023/01/26 06:24:33;;;;;;;;;;;4.10;81.80;;;2.93;65.13;101313.53;6148584;23;19959;-91
2023/01/26 06:27:00;;;;;;;;;;;4.10;81.80;;;2.89;65.02;101317.41;6147049;23;20343;-79
2023/01/26 06:29:27;;;;;;;;;;;4.10;81.70;;;2.92;65.10;101309.22;6148540;23;19920;-79
2023/01/26 06:31:55;;;;;;;;;;;4.10;81.80;;;2.94;65.37;101307.28;6148280;23;20023;-79
2023/01/26 06:34:21;;;;;;;;;;;4.10;81.90;;;2.95;65.20;101300.22;6149045;23;20545;-77
2023/01/26 06:36:49;;;;;;;;;;;4.10;81.80;;;2.93;65.27;101297.72;6148844;23;19921;-79
2023/01/26 06:39:25;;;;;;;;;;;4.10;81.90;;;2.92;65.09;101306.59;6147807;23;19979;-79
2023/01/26 06:41:54;;;;;;;;;;;4.10;81.90;;;2.95;65.39;101306.31;6146678;23;19995;-79
2023/01/26 06:44:21;;;;;;;;;;;4.10;81.90;;;2.94;65.73;101307.28;6149085;23;19921;-79
2023/01/26 06:46:48;;;;;;;;;;;4.10;82.10;;;2.96;65.33;101313.25;6148746;23;19920;-79
2023/01/26 06:49:16;;;;;;;;;;;4.10;82.00;;;2.94;65.49;101309.09;6148899;23;19924;-79
2023/01/26 06:51:52;;;;;;;;;;;4.10;82.00;;;2.95;65.29;101327.38;6149409;23;19924;-79
2023/01/26 06:54:19;;;;;;;;;;;4.20;82.00;;;2.99;65.40;101317.41;6149427;23;19920;-79
2023/01/26 06:57:02;;;;;;;;;;;4.10;82.00;;;2.94;65.39;101331.00;6146204;23;20259;-79
2023/01/26 06:59:41;;;;;;;;;;;4.10;82.00;;;2.94;65.21;101328.38;6148854;23;19920;-79
2023/01/26 07:02:18;;;;;;;;;;;4.10;82.00;;;2.93;65.31;101324.06;6149194;23;19920;-79
2023/01/26 07:04:45;;;;;;;;;;;4.20;82.10;;;2.95;65.83;101316.03;6149731;23;19931;-79
2023/01/26 07:07:12;;;;;;;;;;;4.20;82.00;;;2.93;65.55;101321.44;6150416;23;19950;-79
2023/01/26 07:09:39;;;;;;;;;;;4.20;81.90;;;2.95;65.39;101310.75;6150326;23;19942;-79
2023/01/26 07:12:08;;;;;;;;;;;4.10;82.00;;;2.97;65.20;101320.16;6149689;23;19920;-79
2023/01/26 07:14:35;;;;;;;;;;;4.20;82.00;;;3.00;65.26;101313.78;6150638;23;19971;-79
2023/01/26 07:17:02;;;;;;;;;;;4.20;82.20;;;2.99;65.39;101312.97;6148772;23;19924;-79
2023/01/26 07:19:32;;;;;;;;;;;4.20;82.00;;;2.96;65.50;101315.03;6150645;23;19963;-79
2023/01/26 07:21:59;;;;;;;;;;;4.20;82.20;;;2.95;65.65;101313.38;6149869;23;20003;-79
2023/01/26 07:24:26;;;;;;;;;;;4.20;82.20;;;2.91;66.03;101319.91;6150864;23;20347;-79
2023/01/26 07:26:53;;;;;;;;;;;4.10;82.50;;;2.93;65.95;101310.91;6150510;23;19921;-84
2023/01/26 07:29:21;;;;;;;;;;;4.10;82.50;;;2.93;65.77;101312.69;6150964;23;19920;-84
2023/01/26 07:31:48;;;;;;;;;;;4.10;82.60;;;2.92;65.84;101324.19;6150704;23;19921;-84
2023/01/26 07:34:15;;;;;;;;;;;4.10;82.50;;;2.93;65.96;101324.06;6150546;23;20003;-84
2023/01/26 07:36:42;;;;;;;;;;;4.10;82.50;;;2.96;65.92;101328.22;6151114;23;20255;-82
2023/01/26 07:39:09;;;;;;;;;;;4.10;82.50;;;2.98;65.90;101319.22;6150593;23;19952;-84
2023/01/26 07:41:36;;;;;;;;;;;4.30;82.50;;;2.99;65.55;101323.50;6150106;23;19920;-84
2023/01/26 07:44:16;;;;;;;;;;;4.20;82.50;;;2.96;66.01;101312.41;6149812;23;19927;-84
2023/01/26 07:46:45;;;;;;;;;;;4.20;82.40;;;2.95;66.16;101316.03;6152925;23;19971;-84
2023/01/26 07:49:12;;;;;;;;;;;4.20;82.50;;;2.99;66.09;101317.41;6153072;23;19921;-84
2023/01/26 07:51:39;;;;;;;;;;;4.20;82.50;;;3.01;65.90;101321.53;6151389;23;20307;-84
2023/01/26 07:54:06;;;;;;;;;;;4.20;82.50;;;3.04;65.59;101321.28;6149889;23;20228;-84
2023/01/26 07:56:33;;;;;;;;;;;4.10;82.50;;;2.99;65.68;101323.50;6151847;23;19927;-83
2023/01/26 07:59:00;;;;;;;;;;;4.20;82.60;;;3.03;66.10;101326.69;6152375;23;19925;-84
2023/01/26 08:01:27;;;;;;;;;;;4.20;82.60;;;3.01;65.82;101318.09;6153184;23;20407;-84
2023/01/26 08:03:56;;;;;;;;;;;4.20;82.60;;;3.04;66.11;101317.81;6151023;23;19969;-84
2023/01/26 08:06:23;;;;;;;;;;;4.20;82.60;;;3.01;65.70;101316.28;6152147;23;19920;-84
2023/01/26 08:08:52;;;;;;;;;;;4.20;82.50;;;2.94;65.88;101325.72;6152606;23;19921;-84
2023/01/26 08:11:21;;;;;;;;;;;4.10;82.90;;;2.94;66.12;101325.72;6152153;23;19999;-84
2023/01/26 08:13:48;;;;;;;;;;;4.20;82.90;;;2.98;66.44;101328.94;6151453;23;20410;-84
2023/01/26 08:16:15;;;;;;;;;;;4.20;82.90;;;2.99;66.28;101318.25;6149906;23;19912;-80
2023/01/26 08:18:44;;;;;;;;;;;4.20;82.90;;;3.00;66.30;101321.69;6151377;23;19971;-80
2023/01/26 08:21:14;;;;;;;;;;;4.20;83.00;;;3.04;66.18;101342.34;6153201;23;20431;-80
2023/01/26 08:23:41;;;;;;;;;;;4.20;82.90;;;3.04;66.35;101345.00;6152499;23;20015;-79
2023/01/26 08:26:23;;;;;;;;;;;4.20;83.00;;;3.01;66.73;101342.63;6152261;23;20327;-79
2023/01/26 08:28:50;;;;;;;;;;;4.10;83.40;;;2.99;66.59;101347.22;6153114;23;19921;-79
2023/01/26 08:31:19;;;;;;;;;;;4.10;83.50;;;2.98;66.58;101350.84;6152049;23;19935;-80
2023/01/26 08:33:46;;;;;;;;;;;4.00;83.60;;;2.99;66.74;101354.28;6151953;23;20012;-80
2023/01/26 08:36:15;;;;;;;;;;;4.10;83.80;;;2.98;66.58;101348.19;6150267;23;19991;-80
2023/01/26 08:38:43;;;;;;;;;;;4.00;83.70;;;2.96;66.57;101342.22;6151479;23;19921;-79
2023/01/26 08:41:11;;;;;;;;;;;4.00;83.80;;;2.89;67.22;101345.56;6151865;23;19920;-80
2023/01/26 08:43:38;;;;;;;;;;;4.00;83.90;;;2.88;67.08;101346.50;6152204;23;19924;-80
2023/01/26 08:46:05;;;;;;;;;;;4.00;84.10;;;2.92;67.01;101350.53;6150311;23;19916;-82
2023/01/26 08:48:32;;;;;;;;;;;4.00;84.20;;;2.92;67.15;101350.53;6152600;23;20014;-77
2023/01/26 08:51:02;;;;;;;;;;;4.00;84.30;;;2.92;67.43;101356.63;6151448;23;20011;-80
2023/01/26 08:53:32;;;;;;;;;;;4.00;84.30;;;2.93;67.27;101350.41;6151888;23;19920;-78
2023/01/26 08:56:01;;;;;;;;;;;4.00;84.20;;;2.94;67.19;101365.25;6151263;23;19920;-78
2023/01/26 08:58:28;;;;;;;;;;;4.10;84.30;;;2.97;67.33;101354.41;6150774;23;20362;-77
2023/01/26 09:00:55;;;;;;;;;;;4.00;84.20;;;3.00;67.00;101351.50;6152565;23;19923;-77
2023/01/26 09:03:22;;;;;;;;;;;4.10;84.30;;;3.02;66.94;101351.34;6151782;23;19921;-78
2023/01/26 09:05:49;;;;;;;;;;;4.10;84.20;;;3.06;67.34;101360.66;6150905;23;19927;-78
2023/01/26 09:08:16;;;;;;;;;;;4.20;84.10;;;3.08;67.04;101358.72;6149643;23;19924;-78
2023/01/26 09:10:44;;;;;;;;;;;4.20;84.10;;;3.06;66.98;101348.31;6151751;23;19924;-78
2023/01/26 09:13:11;;;;;;;;;;;4.20;84.00;;;3.08;67.09;101359.56;6150012;23;19917;-78
2023/01/26 09:15:38;;;;;;;;;;;4.20;84.00;;;3.10;67.16;101360.22;6152279;23;19955;-78
2023/01/26 09:18:06;;;;;;;;;;;4.20;84.10;;;3.14;67.42;101362.59;6148994;23;20354;-78
2023/01/26 09:20:33;;;;;;;;;;;4.20;84.10;;;3.13;67.45;101359.13;6150591;23;20248;-78
2023/01/26 09:23:00;;;;;;;;;;;4.30;84.30;;;3.08;67.60;101375.38;6150280;23;19951;-78
2023/01/26 09:25:27;;;;;;;;;;;4.20;84.40;;;3.08;67.43;101374.53;6152163;23;19967;-78
2023/01/26 09:27:55;;;;;;;;;;;4.20;84.50;;;3.03;67.80;101374.13;6151275;23;19936;-78
2023/01/26 09:30:23;;;;;;;;;;;4.10;84.90;;;3.06;68.13;101376.47;6150455;23;19920;-78
2023/01/26 09:32:50;;;;;;;;;;;4.10;85.00;;;3.08;68.04;101371.91;6151388;23;19959;-78
2023/01/26 09:35:17;;;;;;;;;;;4.10;85.00;;;3.05;68.13;101372.16;6152125;23;20004;-78
2023/01/26 09:37:45;;;;;;;;;;;4.20;85.20;;;3.06;68.40;101372.03;6149786;23;19927;-78
2023/01/26 09:40:17;;;;;;;;;;;4.10;85.30;;;3.07;68.59;101386.88;6150376;23;19920;-78
2023/01/26 09:42:55;;;;;;;;;;;4.20;85.40;;;3.09;68.53;101371.75;6151140;23;19927;-77
2023/01/26 09:45:31;;;;;;;;;;;4.10;85.50;;;3.10;68.55;101373.41;6151668;23;20366;-77
2023/01/26 09:48:12;;;;;;;;;;;4.20;85.50;;;3.12;68.49;101368.00;6151260;23;19924;-78
2023/01/26 09:50:42;;;;;;;;;;;4.20;85.50;;;3.12;68.41;101369.78;6151263;23;19929;-78
2023/01/26 09:53:14;;;;;;;;;;;4.20;85.50;;;3.14;68.83;101370.50;6151116;23;20006;-78
2023/01/26 09:55:42;;;;;;;;;;;4.20;85.50;;;3.09;68.89;101366.47;6150020;23;19921;-78
2023/01/26 09:58:14;;;;;;;;;;;4.30;85.60;;;3.08;69.21;101362.19;6150848;23;20347;-78
2023/01/26 10:00:46;;;;;;;;;;;4.20;85.90;;;3.12;69.11;101367.16;6151909;23;19931;-78
2023/01/26 10:03:18;;;;;;;;;;;4.20;86.10;;;3.15;69.14;101361.63;6151052;23;20008;-78
2023/01/26 10:05:50;;;;;;;;;;;4.20;86.20;;;3.15;69.10;101361.63;6150881;23;20344;-78
2023/01/26 10:08:37;;;;;;;;;;;4.20;86.20;;;3.06;69.38;101360.66;6151672;23;19975;-77
2023/01/26 10:11:10;;;;;;;;;;;4.20;86.10;;;3.05;69.44;101357.19;6149035;23;19951;-78
2023/01/26 10:13:37;;;;;;;;;;;4.20;86.10;;;3.08;69.49;101361.38;6151370;23;19946;-77
2023/01/26 10:16:09;;;;;;;;;;;4.30;86.40;;;3.08;69.55;101354.28;6150696;23;19920;-78
2023/01/26 10:18:44;;;;;;;;;;;4.20;86.40;;;3.09;69.52;101358.56;6151495;23;20008;-78
2023/01/26 10:21:12;;;;;;;;;;;4.20;86.50;;;3.07;69.57;101357.91;6151363;23;19927;-78
2023/01/26 10:23:42;;;;;;;;;;;4.20;86.50;;;3.03;69.95;101356.50;6149943;23;20415;-78
2023/01/26 10:26:12;;;;;;;;;;;4.20;86.70;;;3.07;70.26;101352.63;6149105;23;20429;-78
2023/01/26 10:28:41;;;;;;;;;;;4.20;86.70;;;3.10;69.96;101347.06;6147481;23;19939;-77
2023/01/26 10:31:14;;;;;;;;;;;4.20;86.70;;;3.13;69.91;101345.97;6146409;23;20002;-78
2023/01/26 10:33:44;;;;;;;;;;;4.20;86.60;;;3.15;70.03;101343.16;6150196;23;20390;-78
2023/01/26 10:36:12;;;;;;;;;;;4.20;86.50;;;3.19;69.79;101334.00;6150512;23;20332;-80
2023/01/26 10:38:41;;;;;;;;;;;4.30;86.50;;;3.19;69.97;101324.31;6149233;23;19951;-76
2023/01/26 10:41:27;;;;;;;;;;;4.30;86.50;;;3.22;69.82;101336.34;6149170;23;19917;-76
2023/01/26 10:43:56;;;;;;;;;;;4.30;86.50;;;3.22;70.11;101333.72;6150712;23;19936;-76
2023/01/26 10:46:27;;;;;;;;;;;4.30;86.80;;;3.21;69.82;101332.88;6149972;23;19967;-79
2023/01/26 10:48:55;;;;;;;;;;;4.30;86.70;;;3.23;69.93;101330.13;6148848;23;19920;-78
2023/01/26 10:51:28;;;;;;;;;;;4.30;86.70;;;3.24;70.13;101331.78;6147843;23;20328;-81
2023/01/26 10:54:25;;;;;;;;;;;4.30;86.80;;;3.27;69.96;101329.72;6150489;23;19931;-78
2023/01/26 10:56:53;;;;;;;;;;;4.30;86.80;;;3.30;70.16;101318.84;6149493;23;19920;-78
2023/01/26 10:59:28;;;;;;;;;;;4.30;87.10;;;3.31;70.46;101332.88;6150908;23;19928;-78
2023/01/26 11:01:59;;;;;;;;;;;4.40;87.00;;;3.33;70.07;101330.94;6151139;23;19931;-76
2023/01/26 11:04:26;;;;;;;;;;;4.40;86.90;;;3.27;70.16;101331.47;6150167;23;19920;-76
2023/01/26 11:06:53;;;;;;;;;;;4.40;86.90;;;3.25;70.63;101328.16;6149593;23;19924;-76
2023/01/26 11:09:28;;;;;;;;;;;4.40;87.10;;;3.26;70.83;101322.75;6150958;23;19955;-76
2023/01/26 11:11:58;;;;;;;;;;;4.40;87.30;;;3.28;70.83;101322.63;6147385;23;19999;-76
2023/01/26 11:14:25;;;;;;;;;;;4.40;87.50;;;3.32;71.02;101322.19;6149094;23;19920;-76
2023/01/26 11:16:56;;;;;;;;;;;4.50;87.50;;;3.34;70.60;101322.03;6150859;23;19916;-78
2023/01/26 11:19:55;;;;;;;;;;;4.40;87.40;;;3.33;71.00;101315.13;6149543;23;19926;-75
2023/01/26 11:22:25;;;;;;;;;;;4.40;87.70;;;3.32;70.94;101313.47;6153242;23;20250;-76
2023/01/26 11:25:00;;;;;;;;;;;4.40;87.70;;;3.31;71.31;101314.41;6152500;23;19944;-76
2023/01/26 11:27:35;;;;;;;;;;;4.40;88.00;;;3.34;71.21;101316.78;6150458;23;20483;-76
2023/01/26 11:30:17;;;;;;;;;;;4.30;88.10;;;3.36;71.33;101309.53;6153487;23;20354;-76
2023/01/26 11:32:51;;;;;;;;;;;4.40;87.90;;;3.35;70.97;101313.97;6152259;23;19926;-76
2023/01/26 11:35:29;;;;;;;;;;;4.40;87.90;;;3.34;71.82;101316.78;6153030;23;20247;-76
2023/01/26 11:38:01;;;;;;;;;;;4.40;88.30;;;3.35;71.81;101318.44;6152570;23;20350;-76
2023/01/26 11:40:36;;;;;;;;;;;4.40;88.50;;;3.34;71.41;101317.59;6150634;23;19947;-77
2023/01/26 11:43:21;;;;;;;;;;;4.40;88.40;;;3.37;71.78;101321.78;6152083;23;19971;-76
2023/01/26 11:46:02;;;;;;;;;;;4.40;88.30;;;3.36;71.91;101314.81;6153605;23;20328;-76
2023/01/26 11:48:34;;;;;;;;;;;4.40;88.50;;;3.39;71.80;101314.53;6149809;23;19921;-76
2023/01/26 11:51:07;;;;;;;;;;;4.40;88.50;;;3.39;71.58;101301.34;6153156;23;19927;-76
2023/01/26 11:53:55;;;;;;;;;;;4.40;88.30;;;3.40;71.67;101308.28;6153916;23;20003;-76
2023/01/26 11:56:33;;;;;;;;;;;4.50;88.40;;;3.41;71.51;101317.03;6152039;23;19991;-76
2023/01/26 11:59:03;;;;;;;;;;;4.50;88.70;;;3.39;71.81;101306.63;6151434;23;20403;-76
2023/01/26 12:01:34;;;;;;;;;;;4.50;88.80;;;3.38;71.98;101304.16;6151909;23;19951;-76
2023/01/26 12:04:01;;;;;;;;;;;4.40;88.50;;;3.38;71.99;101294.44;6153494;23;19924;-76
2023/01/26 12:06:36;;;;;;;;;;;4.40;88.60;;;3.41;72.04;101293.28;6151678;23;19921;-76
2023/01/26 12:09:09;;;;;;;;;;;4.40;88.70;;;3.41;72.27;101294.13;6151698;23;19926;-76
2023/01/26 12:11:39;;;;;;;;;;;4.50;88.90;;;3.39;72.28;101293.44;6151402;23;19959;-76
2023/01/26 12:14:16;;;;;;;;;;;4.40;88.90;;;3.42;71.96;101285.25;6151204;23;19931;-76
2023/01/26 12:17:24;;;;;;;;;;;4.50;88.90;;;3.42;72.41;101280.00;6150878;23;19921;-76
2023/01/26 12:20:03;;;;;;;;;;;4.50;88.80;;;3.44;72.27;101279.81;6120031;23;20019;-77
2023/01/26 12:22:34;;;;;;;;;;;4.50;88.90;;;3.46;72.42;101277.88;6153068;23;20012;-77
2023/01/26 12:25:07;;;;;;;;;;;4.50;88.90;;;3.45;72.16;101278.84;6153275;23;19932;-76
2023/01/26 12:27:36;;;;;;;;;;;4.50;88.90;;;3.38;72.25;101277.78;6152808;23;20006;-76